Time;durP1;ratioP1;P1;durP2;ratioP2;P2;SDS_P1;SDS_P2;PMS_P1;PMS_P2;Temp;Humidity;BMP_temperature;BMP_pressure;BME280_temperature;BME280_humidity;BME280_pressure;Samples;Min_cycle;Max_cycle;Signal;HPM_P1;HPM_P2
2022/04/11 00:00:27;;;;;;;16.35;10.98;;;22.90;99.90;;;;;;5031839;28;20501;-56
2022/04/11 00:02:53;;;;;;;15.70;11.13;;;23.00;99.90;;;;;;5031323;28;20388;-57
2022/04/11 00:05:18;;;;;;;15.48;10.70;;;23.00;99.90;;;;;;5031717;28;20034;-57
2022/04/11 00:07:44;;;;;;;18.48;11.73;;;22.90;99.90;;;;;;5031271;28;20108;-56
2022/04/11 00:10:10;;;;;;;15.13;10.85;;;22.90;99.90;;;;;;5030079;28;20025;-58
2022/04/11 00:12:37;;;;;;;14.55;10.35;;;22.90;99.90;;;;;;5031187;28;20033;-57
2022/04/11 00:15:08;;;;;;;18.05;11.73;;;22.90;99.90;;;;;;5031270;28;20056;-56
2022/04/11 00:17:35;;;;;;;12.75;9.57;;;22.90;99.90;;;;;;5031187;28;20380;-56
2022/04/11 00:20:01;;;;;;;15.43;9.65;;;22.90;99.90;;;;;;5031214;28;20026;-56
2022/04/11 00:22:26;;;;;;;15.65;11.23;;;22.90;99.90;;;;;;5031134;28;20036;-56
2022/04/11 00:24:52;;;;;;;16.23;10.90;;;22.90;99.90;;;;;;5031127;28;20037;-56
2022/04/11 00:27:19;;;;;;;13.13;9.35;;;22.90;99.90;;;;;;5030159;28;20083;-57
2022/04/11 00:29:44;;;;;;;16.13;11.10;;;22.90;99.90;;;;;;5031050;28;20120;-56
2022/04/11 00:32:10;;;;;;;15.35;10.75;;;22.90;99.90;;;;;;5031316;28;20100;-56
2022/04/11 00:34:36;;;;;;;14.82;10.15;;;22.90;99.90;;;;;;5031027;28;20026;-57
2022/04/11 00:37:02;;;;;;;12.40;9.52;;;22.90;99.90;;;;;;5030992;28;20013;-56
2022/04/11 00:39:28;;;;;;;14.88;10.20;;;22.90;99.90;;;;;;5030800;28;20116;-57
2022/04/11 00:41:54;;;;;;;16.02;10.68;;;22.90;99.90;;;;;;5030936;28;20148;-58
2022/04/11 00:44:20;;;;;;;14.57;10.75;;;22.90;99.90;;;;;;5031118;28;20110;-57
2022/04/11 00:46:45;;;;;;;14.63;10.50;;;22.80;99.90;;;;;;5031109;28;20030;-56
2022/04/11 00:49:11;;;;;;;14.93;9.73;;;22.80;99.90;;;;;;5029660;28;20139;-56
2022/04/11 00:51:38;;;;;;;17.02;10.30;;;22.80;99.90;;;;;;5030858;28;20378;-56
2022/04/11 00:54:05;;;;;;;12.43;9.65;;;22.90;99.90;;;;;;5030921;28;20036;-54
2022/04/11 00:56:30;;;;;;;16.42;10.82;;;22.90;99.90;;;;;;5031041;28;20037;-55
2022/04/11 00:59:04;;;;;;;15.60;10.93;;;22.80;99.90;;;;;;5034445;28;20100;-54
2022/04/11 01:01:30;;;;;;;14.48;10.65;;;22.80;99.90;;;;;;5034308;28;20418;-55
2022/04/11 01:03:57;;;;;;;16.50;10.90;;;22.80;99.90;;;;;;5034400;28;20037;-54
2022/04/11 01:06:23;;;;;;;17.70;12.45;;;22.80;99.90;;;;;;5034664;28;20034;-54
2022/04/11 01:08:49;;;;;;;17.73;11.90;;;22.80;99.90;;;;;;5034399;28;20037;-55
2022/04/11 01:11:14;;;;;;;17.27;11.45;;;22.80;99.90;;;;;;5034504;28;20033;-56
2022/04/11 01:13:42;;;;;;;14.93;10.98;;;22.80;99.90;;;;;;5034188;28;20493;-55
2022/04/11 01:16:08;;;;;;;16.27;12.18;;;22.80;99.90;;;;;;5034702;28;20389;-54
2022/04/11 01:18:35;;;;;;;14.82;11.27;;;22.80;99.90;;;;;;5034175;28;20026;-55
2022/04/11 01:21:01;;;;;;;16.88;11.40;;;22.80;99.90;;;;;;5034341;28;20540;-55
2022/04/11 01:23:27;;;;;;;14.25;10.93;;;22.80;99.90;;;;;;5034233;28;20030;-54
2022/04/11 01:25:54;;;;;;;17.08;12.38;;;22.80;99.90;;;;;;5034030;28;20045;-54
2022/04/11 01:28:21;;;;;;;17.83;12.85;;;22.80;99.90;;;;;;5034185;28;20108;-55
2022/04/11 01:30:54;;;;;;;17.80;12.82;;;22.80;99.90;;;;;;5034124;28;20030;-54
2022/04/11 01:33:29;;;;;;;17.52;12.38;;;22.70;99.90;;;;;;5034158;28;20025;-54
2022/04/11 01:35:55;;;;;;;17.50;13.63;;;22.70;99.90;;;;;;5034123;28;20018;-55
2022/04/11 01:38:20;;;;;;;19.50;12.80;;;22.70;99.90;;;;;;5033890;28;20151;-55
2022/04/11 01:40:51;;;;;;;17.63;12.65;;;22.70;99.90;;;;;;5033972;28;20483;-57
2022/04/11 01:43:17;;;;;;;18.50;12.93;;;22.70;99.90;;;;;;5033950;28;20382;-56
2022/04/11 01:45:43;;;;;;;18.17;13.13;;;22.70;99.90;;;;;;5033867;28;20256;-57
2022/04/11 01:48:09;;;;;;;18.55;13.45;;;22.70;99.90;;;;;;5032688;28;20064;-56
2022/04/11 01:50:35;;;;;;;16.88;12.77;;;22.70;99.90;;;;;;5033701;28;20115;-56
2022/04/11 01:53:08;;;;;;;19.95;12.32;;;22.70;99.90;;;;;;5033706;28;20584;-56
2022/04/11 01:55:34;;;;;;;20.10;13.82;;;22.70;99.90;;;;;;5033664;28;20509;-55
2022/04/11 01:58:00;;;;;;;20.23;13.73;;;22.70;99.90;;;;;;5033637;28;20484;-55
2022/04/11 02:00:27;;;;;;;16.45;12.43;;;22.70;99.90;;;;;;5045437;23;20392;-63
2022/04/11 02:02:53;;;;;;;17.42;12.85;;;22.70;99.90;;;;;;5032288;28;20637;-65
2022/04/11 02:05:19;;;;;;;19.00;12.73;;;22.70;99.90;;;;;;5033586;28;20033;-64
2022/04/11 02:07:45;;;;;;;17.13;12.50;;;22.60;99.90;;;;;;5033362;28;20025;-64
2022/04/11 02:10:10;;;;;;;19.05;12.85;;;22.60;99.90;;;;;;5032465;28;20029;-64
2022/04/11 02:12:38;;;;;;;18.95;12.98;;;22.60;99.90;;;;;;5033315;28;20432;-64
2022/04/11 02:15:04;;;;;;;;;;;22.60;99.90;;;;;;5033589;28;20485;-64
2022/04/11 02:17:30;;;;;;;19.33;12.68;;;22.60;99.90;;;;;;5033264;28;19913;-65
2022/04/11 02:19:55;;;;;;;17.15;12.48;;;22.70;99.90;;;;;;5032960;28;20056;-64
2022/04/11 02:22:21;;;;;;;16.40;12.15;;;22.60;99.90;;;;;;5033063;28;20026;-63
2022/04/11 02:24:47;;;;;;;17.10;11.82;;;22.60;99.90;;;;;;5033111;28;20091;-63
2022/04/11 02:27:13;;;;;;;18.70;12.75;;;22.60;99.90;;;;;;5033275;28;20025;-65
2022/04/11 02:29:38;;;;;;;18.92;12.73;;;22.60;99.90;;;;;;5032967;28;20030;-65
2022/04/11 02:32:05;;;;;;;19.13;13.60;;;22.60;99.90;;;;;;5032992;28;20036;-65
2022/04/11 02:34:31;;;;;;;16.20;12.07;;;22.60;99.90;;;;;;5033010;28;20156;-64
2022/04/11 02:36:56;;;;;;;18.23;12.45;;;22.60;99.90;;;;;;5032908;28;20401;-65
2022/04/11 02:39:22;;;;;;;19.70;13.07;;;22.60;99.90;;;;;;5031555;28;20033;-65
2022/04/11 02:41:48;;;;;;;15.95;11.57;;;22.60;99.90;;;;;;5032827;28;20461;-63
2022/04/11 02:44:14;;;;;;;17.73;12.43;;;22.60;99.90;;;;;;5032806;28;20033;-67
2022/04/11 02:46:42;;;;;;;18.13;12.43;;;22.50;99.90;;;;;;5032798;28;20176;-67
2022/04/11 02:49:08;;;;;;;17.33;13.00;;;22.50;99.90;;;;;;5032554;28;20032;-66
2022/04/11 02:51:34;;;;;;;16.98;12.57;;;22.50;99.90;;;;;;5032458;28;20038;-66
2022/04/11 02:54:02;;;;;;;17.20;12.07;;;22.50;99.90;;;;;;5032524;28;20025;-68
2022/04/11 02:56:28;;;;;;;17.33;12.23;;;22.50;99.90;;;;;;5032558;28;20053;-66
2022/04/11 02:58:53;;;;;;;16.50;11.15;;;22.50;99.90;;;;;;5031050;28;20041;-67
2022/04/11 03:01:19;;;;;;;20.23;12.10;;;22.50;99.90;;;;;;5044317;22;20049;-55
2022/04/11 03:03:45;;;;;;;16.13;12.00;;;22.50;99.90;;;;;;5032287;28;20033;-55
2022/04/11 03:06:11;;;;;;;18.70;11.68;;;22.50;99.90;;;;;;5032194;28;20029;-55
2022/04/11 03:08:36;;;;;;;19.65;11.82;;;22.50;99.90;;;;;;5032255;28;20038;-55
2022/04/11 03:11:02;;;;;;;16.48;11.70;;;22.40;99.90;;;;;;5032227;28;20033;-54
2022/04/11 03:13:28;;;;;;;18.33;12.18;;;22.40;99.90;;;;;;5032153;28;20163;-55
2022/04/11 03:15:54;;;;;;;17.15;11.82;;;22.40;99.90;;;;;;5032147;28;20014;-53
2022/04/11 03:18:19;;;;;;;17.52;10.93;;;22.40;99.90;;;;;;5032013;28;20044;-55
2022/04/11 03:20:47;;;;;;;15.20;10.70;;;22.40;99.90;;;;;;5032030;28;20032;-55
2022/04/11 03:23:15;;;;;;;17.75;11.98;;;22.40;99.90;;;;;;5032288;28;20022;-56
2022/04/11 03:25:41;;;;;;;16.17;11.20;;;22.40;99.90;;;;;;5031804;28;20045;-55
2022/04/11 03:28:07;;;;;;;15.10;10.90;;;22.40;99.90;;;;;;5032189;28;20438;-55
2022/04/11 03:30:33;;;;;;;13.30;9.60;;;22.40;99.90;;;;;;5031951;28;20477;-55
2022/04/11 03:32:58;;;;;;;15.18;10.63;;;22.40;99.90;;;;;;5031947;28;20354;-56
2022/04/11 03:35:24;;;;;;;15.45;10.13;;;22.40;99.90;;;;;;5031779;28;20033;-55
2022/04/11 03:37:50;;;;;;;14.88;10.98;;;22.30;99.90;;;;;;5030362;28;20036;-54
2022/04/11 03:40:16;;;;;;;13.93;10.55;;;22.30;99.90;;;;;;5031783;28;20036;-53
2022/04/11 03:42:42;;;;;;;13.88;9.63;;;22.30;99.90;;;;;;5031810;28;20017;-53
2022/04/11 03:45:11;;;;;;;17.17;10.70;;;22.30;99.90;;;;;;5031578;28;20045;-54
2022/04/11 03:47:38;;;;;;;16.15;10.05;;;22.30;99.90;;;;;;5031861;28;20032;-54
2022/04/11 03:50:04;;;;;;;14.40;10.45;;;22.30;99.90;;;;;;5031790;28;20030;-56
2022/04/11 03:52:30;;;;;;;13.82;8.70;;;22.30;99.90;;;;;;5031508;28;20036;-55
2022/04/11 03:54:56;;;;;;;12.27;8.88;;;22.30;99.90;;;;;;5031598;28;20033;-54
2022/04/11 03:57:22;;;;;;;17.58;9.95;;;22.30;99.90;;;;;;5031481;28;20029;-55
2022/04/11 03:59:48;;;;;;;12.48;8.90;;;22.30;99.90;;;;;;5032030;28;20120;-55
2022/04/11 04:02:13;;;;;;;13.00;8.80;;;22.30;99.90;;;;;;5031858;28;20049;-55
2022/04/11 04:04:39;;;;;;;14.65;9.45;;;22.30;99.90;;;;;;5031332;28;20091;-55
2022/04/11 04:07:05;;;;;;;13.95;9.13;;;22.30;99.90;;;;;;5031319;28;20036;-55
2022/04/11 04:09:31;;;;;;;16.13;10.55;;;22.30;99.90;;;;;;5030034;28;20436;-55
2022/04/11 04:11:56;;;;;;;12.38;9.15;;;22.20;99.90;;;;;;5031389;28;20037;-55
2022/04/11 04:14:22;;;;;;;14.07;8.93;;;22.20;99.90;;;;;;5031240;28;20025;-56
2022/04/11 04:16:49;;;;;;;12.98;8.65;;;22.20;99.90;;;;;;5031469;28;20072;-54
2022/04/11 04:19:15;;;;;;;13.07;9.38;;;22.30;99.90;;;;;;5029675;28;20044;-55
2022/04/11 04:21:40;;;;;;;17.15;9.02;;;22.20;99.90;;;;;;5031082;28;20163;-55
2022/04/11 04:24:06;;;;;;;14.20;9.57;;;22.30;99.90;;;;;;5031041;28;20087;-55
2022/04/11 04:26:32;;;;;;;13.23;8.88;;;22.20;99.90;;;;;;5031133;28;20034;-55
2022/04/11 04:28:58;;;;;;;15.02;9.48;;;22.20;99.90;;;;;;5029893;28;20037;-56
2022/04/11 04:31:24;;;;;;;13.15;8.75;;;22.20;99.90;;;;;;5030939;28;20025;-55
2022/04/11 04:33:50;;;;;;;14.38;8.75;;;22.20;99.90;;;;;;5034371;28;20032;-55
2022/04/11 04:36:16;;;;;;;11.30;7.57;;;22.20;99.90;;;;;;5035133;28;20075;-55
2022/04/11 04:38:41;;;;;;;12.10;7.78;;;22.20;99.90;;;;;;5035153;28;20025;-56
2022/04/11 04:41:07;;;;;;;11.48;8.23;;;22.20;99.90;;;;;;5035001;28;20055;-55
2022/04/11 04:43:33;;;;;;;12.48;8.60;;;22.20;99.90;;;;;;5034861;28;20431;-56
2022/04/11 04:45:59;;;;;;;11.70;8.18;;;22.20;99.90;;;;;;5034757;28;20069;-55
2022/04/11 04:48:24;;;;;;;12.75;8.57;;;22.20;99.90;;;;;;5034991;28;20029;-55
2022/04/11 04:50:50;;;;;;;12.38;8.88;;;22.20;99.90;;;;;;5033636;28;20049;-55
2022/04/11 04:53:16;;;;;;;12.20;8.27;;;22.20;99.90;;;;;;5034960;28;20021;-55
2022/04/11 04:55:42;;;;;;;12.15;7.68;;;22.20;99.90;;;;;;5034769;28;20492;-55
2022/04/11 04:58:08;;;;;;;11.27;8.15;;;22.20;99.90;;;;;;5034729;28;20052;-55
2022/04/11 05:00:33;;;;;;;14.13;8.20;;;22.20;99.90;;;;;;5034464;28;20120;-54
2022/04/11 05:02:59;;;;;;;13.00;7.85;;;22.20;99.90;;;;;;5033537;28;20445;-54
2022/04/11 05:05:25;;;;;;;11.52;7.60;;;22.20;99.90;;;;;;5033388;28;20037;-54
2022/04/11 05:07:51;;;;;;;11.73;8.23;;;22.20;99.90;;;;;;5033406;28;20030;-54
2022/04/11 05:10:16;;;;;;;10.65;8.00;;;22.20;99.90;;;;;;5034554;28;20053;-54
2022/04/11 05:12:44;;;;;;;12.68;8.00;;;22.20;99.90;;;;;;5034511;28;20025;-55
2022/04/11 05:15:11;;;;;;;11.27;7.75;;;22.20;99.90;;;;;;5034271;28;20060;-55
2022/04/11 05:17:37;;;;;;;9.70;7.55;;;22.20;99.90;;;;;;5034460;28;20025;-55
2022/04/11 05:20:04;;;;;;;11.77;7.93;;;22.20;99.90;;;;;;5034184;28;20072;-55
2022/04/11 05:22:30;;;;;;;;;;;22.20;99.90;;;;;;5034767;28;20025;-55
2022/04/11 05:24:56;;;;;;;9.82;7.22;;;22.20;99.90;;;;;;5034118;28;19920;-55
2022/04/11 05:27:22;;;;;;;11.13;7.90;;;22.20;99.90;;;;;;5034346;28;20381;-55
2022/04/11 05:29:48;;;;;;;13.57;7.43;;;22.20;99.90;;;;;;5034070;28;20041;-55
2022/04/11 05:32:13;;;;;;;12.55;8.07;;;22.20;99.90;;;;;;5034055;28;20523;-55
2022/04/11 05:34:39;;;;;;;11.68;7.40;;;22.10;99.90;;;;;;5034130;28;20045;-56
2022/04/11 05:37:06;;;;;;;10.80;7.25;;;22.20;99.90;;;;;;5033787;28;20397;-55
2022/04/11 05:39:31;;;;;;;12.27;7.22;;;22.20;99.90;;;;;;5034046;28;20048;-55
2022/04/11 05:41:58;;;;;;;11.93;8.50;;;22.20;99.90;;;;;;5033847;28;20469;-56
2022/04/11 05:44:23;;;;;;;12.65;7.80;;;22.20;99.90;;;;;;5033679;28;20036;-56
2022/04/11 05:46:55;;;;;;;12.93;7.90;;;22.10;99.90;;;;;;5034062;28;20100;-56
2022/04/11 05:49:21;;;;;;;12.30;7.65;;;22.20;99.90;;;;;;5033947;28;20106;-56
2022/04/11 05:51:47;;;;;;;13.50;8.07;;;22.10;99.90;;;;;;5033629;28;20101;-55
2022/04/11 05:54:13;;;;;;;12.80;7.38;;;22.10;99.90;;;;;;5033652;28;20033;-55
2022/04/11 05:56:39;;;;;;;10.32;7.65;;;22.10;99.90;;;;;;5033593;28;20496;-56
2022/04/11 05:59:05;;;;;;;11.40;7.35;;;22.10;99.90;;;;;;5033575;28;20075;-55
2022/04/11 06:01:31;;;;;;;10.75;7.70;;;22.10;99.90;;;;;;5033424;28;20037;-56
2022/04/11 06:03:57;;;;;;;11.98;8.23;;;22.10;99.90;;;;;;5033453;28;20384;-56
2022/04/11 06:06:23;;;;;;;13.90;7.90;;;22.10;99.90;;;;;;5033914;28;20093;-57
2022/04/11 06:08:49;;;;;;;16.52;8.02;;;22.10;99.90;;;;;;5033677;28;20026;-55
2022/04/11 06:11:14;;;;;;;14.35;7.47;;;22.10;99.90;;;;;;5033414;28;20025;-55
2022/04/11 06:13:47;;;;;;;10.70;7.72;;;22.10;99.90;;;;;;5033442;28;20482;-55
2022/04/11 06:16:13;;;;;;;13.02;7.80;;;22.10;99.90;;;;;;5033297;28;20385;-55
2022/04/11 06:18:39;;;;;;;11.27;7.90;;;22.10;99.90;;;;;;5033287;28;20036;-55
2022/04/11 06:21:05;;;;;;;11.98;7.97;;;22.10;99.90;;;;;;5033206;28;20018;-58
2022/04/11 06:23:30;;;;;;;11.32;7.57;;;22.10;99.90;;;;;;5033124;28;20113;-56
2022/04/11 06:25:57;;;;;;;12.35;7.72;;;22.10;99.90;;;;;;5033104;28;20053;-56
2022/04/11 06:28:23;;;;;;;12.77;7.95;;;22.10;99.90;;;;;;5033207;28;20459;-55
2022/04/11 06:30:49;;;;;;;12.35;7.97;;;22.10;99.90;;;;;;5032974;28;20112;-54
2022/04/11 06:33:14;;;;;;;13.80;8.50;;;22.10;99.90;;;;;;5033018;28;20049;-54
2022/04/11 06:35:40;;;;;;;14.35;7.88;;;22.10;99.90;;;;;;5032785;28;20504;-53
2022/04/11 06:38:06;;;;;;;13.95;8.07;;;22.10;99.90;;;;;;5032863;28;20489;-53
2022/04/11 06:40:32;;;;;;;13.75;8.02;;;22.20;99.90;;;;;;5032719;28;20044;-54
2022/04/11 06:42:57;;;;;;;11.90;7.60;;;22.20;99.90;;;;;;5032632;28;20017;-54
2022/04/11 06:45:23;;;;;;;12.45;7.60;;;22.20;99.90;;;;;;5032856;28;20069;-55
2022/04/11 06:47:49;;;;;;;10.07;7.28;;;22.20;99.90;;;;;;5032726;28;20076;-54
2022/04/11 06:50:15;;;;;;;12.95;8.00;;;22.20;99.90;;;;;;5032463;28;20014;-52
2022/04/11 06:52:41;;;;;;;15.63;8.35;;;22.20;99.90;;;;;;5032481;28;20025;-54
2022/04/11 06:55:08;;;;;;;13.35;8.68;;;22.20;99.90;;;;;;5031869;28;20382;-54
2022/04/11 06:57:34;;;;;;;13.57;8.60;;;22.20;99.90;;;;;;5032352;28;20021;-53
2022/04/11 07:00:01;;;;;;;14.75;8.40;;;22.20;99.90;;;;;;5032291;28;20049;-53
2022/04/11 07:02:27;;;;;;;12.10;9.10;;;22.20;99.90;;;;;;5032466;28;20083;-53
2022/04/11 07:04:53;;;;;;;14.05;8.82;;;22.20;99.90;;;;;;5032166;28;20516;-53
2022/04/11 07:07:19;;;;;;;13.10;8.43;;;22.20;99.90;;;;;;5030935;28;20029;-53
2022/04/11 07:09:46;;;;;;;10.63;7.88;;;22.20;99.90;;;;;;5032033;28;20037;-54
2022/04/11 07:12:11;;;;;;;12.90;8.60;;;22.20;99.90;;;;;;5032124;28;20542;-52
2022/04/11 07:14:37;;;;;;;17.85;9.57;;;22.20;99.90;;;;;;5032034;28;20033;-53
2022/04/11 07:17:04;;;;;;;12.60;8.45;;;22.20;99.90;;;;;;5032150;28;20033;-53
2022/04/11 07:19:30;;;;;;;13.00;9.07;;;22.30;99.90;;;;;;5030831;28;20025;-52
2022/04/11 07:21:56;;;;;;;15.63;9.68;;;22.30;99.90;;;;;;5032031;28;20259;-53
2022/04/11 07:24:22;;;;;;;12.10;8.38;;;22.30;99.90;;;;;;5031822;28;20175;-53
2022/04/11 07:26:47;;;;;;;13.77;9.10;;;22.30;99.90;;;;;;5030569;28;20161;-53
2022/04/11 07:29:13;;;;;;;12.18;8.45;;;22.30;99.90;;;;;;5031916;28;20032;-53
2022/04/11 07:31:39;;;;;;;13.10;8.52;;;22.30;99.90;;;;;;5031965;28;20040;-54
2022/04/11 07:34:05;;;;;;;15.57;9.00;;;22.30;99.90;;;;;;5031822;28;20083;-54
2022/04/11 07:36:30;;;;;;;14.43;9.57;;;22.30;99.90;;;;;;5031708;28;20496;-53
2022/04/11 07:38:57;;;;;;;15.07;8.43;;;22.30;99.90;;;;;;5031866;28;20036;-53
2022/04/11 07:41:23;;;;;;;11.02;8.35;;;22.30;99.90;;;;;;5031651;28;20028;-54
2022/04/11 07:43:50;;;;;;;14.83;9.50;;;22.30;99.90;;;;;;5031541;28;20026;-53
2022/04/11 07:46:16;;;;;;;15.07;9.40;;;22.40;99.90;;;;;;5031414;28;20041;-53
2022/04/11 07:48:42;;;;;;;12.18;8.27;;;22.30;99.90;;;;;;5031534;28;20045;-53
2022/04/11 07:51:07;;;;;;;14.98;8.95;;;22.30;99.90;;;;;;5031443;28;20037;-53
2022/04/11 07:53:33;;;;;;;13.43;8.60;;;22.30;99.90;;;;;;5031429;28;20068;-53
2022/04/11 07:55:59;;;;;;;14.20;8.85;;;22.30;99.90;;;;;;5031671;28;20078;-54
2022/04/11 07:58:25;;;;;;;12.15;7.63;;;22.30;99.90;;;;;;5031338;28;20389;-53
2022/04/11 08:00:52;;;;;;;13.20;8.45;;;22.30;99.90;;;;;;5031355;28;20052;-54
2022/04/11 08:03:19;;;;;;;12.68;9.00;;;22.30;99.90;;;;;;5031307;28;20481;-53
2022/04/11 08:05:45;;;;;;;16.50;9.50;;;22.30;99.90;;;;;;5031197;28;20044;-52
2022/04/11 08:08:11;;;;;;;13.75;8.15;;;22.30;99.90;;;;;;5031465;28;20263;-54
2022/04/11 08:10:37;;;;;;;15.18;8.90;;;22.30;99.90;;;;;;5031268;28;20052;-53
2022/04/11 08:13:03;;;;;;;12.13;7.47;;;22.30;99.90;;;;;;5031178;28;20017;-53
2022/04/11 08:15:31;;;;;;;12.85;8.18;;;22.30;99.90;;;;;;5031344;28;20040;-53
2022/04/11 08:17:57;;;;;;;12.77;8.02;;;22.30;99.90;;;;;;5031062;28;20018;-53
2022/04/11 08:20:24;;;;;;;14.63;8.30;;;22.30;99.90;;;;;;5031067;28;20038;-53
2022/04/11 08:22:50;;;;;;;13.68;7.10;;;22.40;99.90;;;;;;5031137;28;20021;-54
2022/04/11 08:25:16;;;;;;;12.25;7.25;;;22.40;99.90;;;;;;5031028;28;20099;-53
2022/04/11 08:27:43;;;;;;;16.70;7.50;;;22.40;99.90;;;;;;5031046;28;20428;-54
2022/04/11 08:30:10;;;;;;;12.70;7.70;;;22.40;99.90;;;;;;5031099;28;20083;-53
2022/04/11 08:32:38;;;;;;;11.20;7.18;;;22.40;99.90;;;;;;5031166;28;20021;-53
2022/04/11 08:35:06;;;;;;;13.48;7.57;;;22.40;99.90;;;;;;5030985;28;20120;-54
2022/04/11 08:37:32;;;;;;;13.70;7.10;;;22.40;99.90;;;;;;5031453;28;20065;-53
2022/04/11 08:39:58;;;;;;;10.30;7.05;;;22.50;99.90;;;;;;5031076;28;20034;-54
2022/04/11 08:42:24;;;;;;;15.35;7.70;;;22.40;99.90;;;;;;5030961;28;20025;-53
2022/04/11 08:44:54;;;;;;;15.13;7.30;;;22.40;99.90;;;;;;5031058;28;20132;-54
2022/04/11 08:47:20;;;;;;;12.27;5.90;;;22.50;99.90;;;;;;5031098;28;20032;-54
2022/04/11 08:49:46;;;;;;;12.70;6.55;;;22.50;99.90;;;;;;5030921;28;20029;-54
2022/04/11 08:52:12;;;;;;;12.93;6.57;;;22.50;99.90;;;;;;5030868;28;20022;-54
2022/04/11 08:54:39;;;;;;;10.98;6.45;;;22.50;99.90;;;;;;5030798;28;20409;-54
2022/04/11 08:57:05;;;;;;;13.05;6.28;;;22.50;99.90;;;;;;5030721;28;20484;-55
2022/04/11 08:59:34;;;;;;;9.52;6.80;;;22.50;99.90;;;;;;5030818;28;20033;-53
2022/04/11 09:02:00;;;;;;;16.90;7.75;;;22.50;99.90;;;;;;5030867;28;20037;-54
2022/04/11 09:04:25;;;;;;;9.35;6.07;;;22.50;99.90;;;;;;5029447;28;20091;-52
2022/04/11 09:06:56;;;;;;;10.45;6.72;;;22.50;99.90;;;;;;5030850;28;20053;-53
2022/04/11 09:09:42;;;;;;;11.95;6.78;;;22.50;99.90;;;;;;5030860;28;20025;-54
2022/04/11 09:12:19;;;;;;;12.82;7.05;;;22.50;99.90;;;;;;5030384;28;20080;-52
2022/04/11 09:14:53;;;;;;;13.40;7.15;;;22.50;99.90;;;;;;5030863;28;20029;-53
2022/04/11 09:17:25;;;;;;;11.45;6.30;;;22.50;99.90;;;;;;5030646;28;20037;-53
2022/04/11 09:20:07;;;;;;;14.23;6.60;;;22.50;99.90;;;;;;5033386;28;20014;-54
2022/04/11 09:22:33;;;;;;;9.10;5.97;;;22.40;99.90;;;;;;5034517;28;20029;-53
2022/04/11 09:25:07;;;;;;;9.77;6.07;;;22.50;99.90;;;;;;5034182;28;20029;-53
2022/04/11 09:27:33;;;;;;;10.82;5.97;;;22.40;99.90;;;;;;5034278;28;20032;-54
2022/04/11 09:29:58;;;;;;;11.60;6.50;;;22.50;99.90;;;;;;5034119;28;20104;-53
2022/04/11 09:32:24;;;;;;;11.57;5.90;;;22.50;99.90;;;;;;5033888;28;20017;-54
2022/04/11 09:34:54;;;;;;;10.32;5.75;;;22.50;99.90;;;;;;5033951;28;20053;-54
2022/04/11 09:37:20;;;;;;;11.25;7.18;;;22.50;99.90;;;;;;5033966;28;20052;-55
2022/04/11 09:39:56;;;;;;;9.90;5.78;;;22.50;99.90;;;;;;5033897;28;20029;-53
2022/04/11 09:42:31;;;;;;;10.15;5.43;;;22.50;99.90;;;;;;5034012;28;20362;-54
2022/04/11 09:45:00;;;;;;;12.45;6.20;;;22.50;99.90;;;;;;5033844;28;20041;-54
2022/04/11 09:47:27;;;;;;;11.93;5.95;;;22.50;99.90;;;;;;5033976;28;20097;-54
2022/04/11 09:49:53;;;;;;;11.40;5.55;;;22.50;99.90;;;;;;5032573;28;20036;-53
2022/04/11 09:52:20;;;;;;;10.13;4.82;;;22.50;99.90;;;;;;5033758;28;20025;-54
2022/04/11 09:54:47;;;;;;;9.55;5.65;;;22.50;99.90;;;;;;5033793;28;20104;-54
2022/04/11 09:57:15;;;;;;;12.15;5.50;;;22.50;99.90;;;;;;5033631;28;20021;-54
2022/04/11 09:59:43;;;;;;;12.45;5.97;;;22.50;99.90;;;;;;5033358;28;20060;-54
2022/04/11 10:02:12;;;;;;;16.38;7.28;;;22.50;99.90;;;;;;5032232;28;20508;-54
2022/04/11 10:04:39;;;;;;;11.00;5.57;;;22.50;99.90;;;;;;5033619;28;20073;-54
2022/04/11 10:07:14;;;;;;;10.23;5.90;;;22.50;99.90;;;;;;5033746;28;20033;-55
2022/04/11 10:09:40;;;;;;;13.98;7.93;;;22.50;99.90;;;;;;5033294;28;20508;-53
2022/04/11 10:12:07;;;;;;;12.07;8.77;;;22.50;99.90;;;;;;5033660;28;20026;-53
2022/04/11 10:14:34;;;;;;;16.85;7.63;;;22.50;99.90;;;;;;5033150;28;20608;-55
2022/04/11 10:17:02;;;;;;;14.95;9.30;;;22.50;99.90;;;;;;5033346;28;20022;-53
2022/04/11 10:19:29;;;;;;;;;;;22.50;99.90;;;;;;5033633;28;20143;-53
2022/04/11 10:21:59;;;;;;;12.02;6.40;;;22.40;99.90;;;;;;5033146;28;19905;-53
2022/04/11 10:24:35;;;;;;;12.13;6.78;;;22.40;99.90;;;;;;5032929;28;20120;-53
2022/04/11 10:27:22;;;;;;;12.13;6.20;;;22.40;99.90;;;;;;5032995;28;20060;-53
2022/04/11 10:29:50;;;;;;;10.70;6.05;;;22.40;99.90;;;;;;5032058;28;20034;-54
2022/04/11 10:32:21;;;;;;;11.98;6.25;;;22.40;99.90;;;;;;5032638;28;20500;-53
2022/04/11 10:34:55;;;;;;;16.33;7.03;;;22.40;99.90;;;;;;5032914;28;20029;-53
2022/04/11 10:37:23;;;;;;;11.32;6.30;;;22.40;99.90;;;;;;5031752;28;20037;-54
2022/04/11 10:39:51;;;;;;;9.18;6.03;;;22.50;99.90;;;;;;5032764;28;20029;-55
2022/04/11 10:42:19;;;;;;;12.63;6.45;;;22.50;99.90;;;;;;5032594;28;20040;-55
2022/04/11 10:44:50;;;;;;;11.52;7.47;;;22.50;99.90;;;;;;5032552;28;20176;-54
2022/04/11 10:47:16;;;;;;;12.23;6.43;;;22.50;99.90;;;;;;5032498;28;20040;-54
2022/04/11 10:49:45;;;;;;;10.80;7.15;;;22.50;99.90;;;;;;5032584;28;20432;-54
2022/04/11 10:52:32;;;;;;;10.70;7.65;;;22.50;99.90;;;;;;5032674;28;20036;-54
2022/04/11 10:55:18;;;;;;;8.98;6.53;;;22.50;99.90;;;;;;5032545;28;20560;-53
2022/04/11 10:57:47;;;;;;;14.13;7.25;;;22.40;99.90;;;;;;5032356;28;20492;-54
2022/04/11 11:00:18;;;;;;;12.35;5.80;;;22.50;99.90;;;;;;5031004;28;20053;-53
2022/04/11 11:03:01;;;;;;;11.20;6.80;;;22.50;99.90;;;;;;5032346;28;20033;-54
2022/04/11 11:05:48;;;;;;;11.93;6.70;;;22.50;99.90;;;;;;5032091;28;20037;-53
2022/04/11 11:08:17;;;;;;;11.20;6.80;;;22.50;99.90;;;;;;5030986;28;20382;-53
2022/04/11 11:11:01;;;;;;;11.73;6.55;;;22.50;99.90;;;;;;5031007;28;20457;-54
2022/04/11 11:13:34;;;;;;;11.55;6.10;;;22.50;99.90;;;;;;5032154;28;20024;-53
2022/04/11 11:16:12;;;;;;;12.18;7.03;;;22.50;99.90;;;;;;5032066;28;20030;-53
2022/04/11 11:18:47;;;;;;;11.75;6.78;;;22.60;99.90;;;;;;5032273;28;20052;-54
2022/04/11 11:21:13;;;;;;;13.90;6.85;;;22.60;99.90;;;;;;5031972;28;20025;-54
2022/04/11 11:23:39;;;;;;;12.93;6.45;;;22.60;99.90;;;;;;5032070;28;20030;-53
2022/04/11 11:26:09;;;;;;;11.18;6.72;;;22.60;99.90;;;;;;5031935;28;20358;-54
2022/04/11 11:28:35;;;;;;;10.82;6.40;;;22.70;99.90;;;;;;5031867;28;20031;-54
2022/04/11 11:31:01;;;;;;;13.18;6.32;;;22.70;99.90;;;;;;5030582;28;20033;-54
2022/04/11 11:33:27;;;;;;;12.15;6.78;;;22.70;99.90;;;;;;5031786;28;20470;-53
2022/04/11 11:35:55;;;;;;;13.05;6.07;;;22.80;99.90;;;;;;5030292;28;20057;-54
2022/04/11 11:38:29;;;;;;;11.82;6.38;;;22.80;99.90;;;;;;5031834;28;20381;-54
2022/04/11 11:41:00;;;;;;;15.35;6.38;;;22.80;99.90;;;;;;5031709;28;20029;-55
2022/04/11 11:43:27;;;;;;;12.20;6.97;;;22.90;99.90;;;;;;5031575;28;20022;-54
2022/04/11 11:45:58;;;;;;;14.98;7.68;;;22.90;99.90;;;;;;5031360;28;20385;-55
2022/04/11 11:48:28;;;;;;;17.65;9.30;;;22.90;99.90;;;;;;5030220;28;20366;-54
2022/04/11 11:50:56;;;;;;;20.23;11.20;;;22.90;99.90;;;;;;5031514;28;20032;-54
2022/04/11 11:53:23;;;;;;;26.58;15.65;;;22.90;99.90;;;;;;5031379;28;20152;-54
2022/04/11 11:55:56;;;;;;;23.15;12.82;;;22.90;99.90;;;;;;5031317;28;20021;-53
2022/04/11 11:58:32;;;;;;;27.38;16.10;;;22.90;99.90;;;;;;5031376;28;20025;-54
2022/04/11 12:00:58;;;;;;;24.98;14.15;;;22.90;99.90;;;;;;5031125;28;20401;-53
2022/04/11 12:06:08;;;;;;;25.08;13.32;;;22.90;99.90;;;;;;5031262;28;20091;-53
2022/04/11 12:08:34;;;;;;;23.67;13.45;;;23.00;99.90;;;;;;5031264;28;20033;-53
2022/04/11 12:11:00;;;;;;;18.50;10.60;;;23.00;99.90;;;;;;5031213;28;20033;-53
2022/04/11 12:13:30;;;;;;;18.08;10.52;;;23.00;99.90;;;;;;5031164;28;20021;-54
2022/04/11 12:16:15;;;;;;;20.17;12.40;;;23.00;99.90;;;;;;5031057;28;20025;-54
2022/04/11 12:19:01;;;;;;;19.75;12.30;;;23.00;99.90;;;;;;5031318;28;20034;-53
2022/04/11 12:21:36;;;;;;;19.60;12.70;;;23.00;99.90;;;;;;5031055;28;20132;-55
2022/04/11 12:24:04;;;;;;;23.50;12.70;;;23.10;99.90;;;;;;5031209;28;20578;-54
2022/04/11 12:26:48;;;;;;;;;;;23.10;99.90;;;;;;5031513;28;20113;-53
2022/04/11 12:29:18;;;;;;;18.45;11.50;;;23.10;99.90;;;;;;5031213;28;20486;-54
2022/04/11 12:32:03;;;;;;;23.17;13.43;;;23.10;99.90;;;;;;5031123;28;20117;-53
2022/04/11 12:34:38;;;;;;;21.25;11.23;;;23.10;99.90;;;;;;5030884;28;20083;-53
2022/04/11 12:37:07;;;;;;;19.50;11.27;;;23.10;99.90;;;;;;5031106;28;20034;-53
2022/04/11 12:39:52;;;;;;;16.73;9.88;;;23.10;99.90;;;;;;5030974;28;20025;-53